This is the latest recevied weather packets stored in our database for station/object OE-11331. If no packets are shown the sender has not sent any weather packets the latest 10 day(s).
| Time | Temp. | Humidity | Pressure | Rain* | Wind** | Luminosity | Snow |
|---|---|---|---|---|---|---|---|
| 1788023507 | 23.89° C | 54% | 1014.2 hPa | 0 mm | - | 76 W/m² | - |
| 1788023133 | 24.44° C | 54% | 1014.1 hPa | 0 mm | - | 130 W/m² | - |
| 1788022534 | 24.44° C | 55% | 1013.9 hPa | 0 mm | - | 119 W/m² | - |
| 1788021707 | 24.44° C | 54% | 1014 hPa | 0 mm | - | 141 W/m² | - |
| 1788021334 | 24.44° C | 54% | 1014.1 hPa | 0 mm | - | 173 W/m² | - |
| 1788020733 | 24.44° C | 52% | 1014.1 hPa | 0 mm | - | 119 W/m² | - |
| 1788019907 | 24.44° C | 54% | 1014.2 hPa | 0 mm | - | 65 W/m² | - |
| 1788019534 | 24.44° C | 54% | 1014.4 hPa | 0 mm | - | 43 W/m² | - |
| 1788018933 | 24.44° C | 52% | 1014.3 hPa | 0 mm | - | 43 W/m² | - |
| 1788018107 | 25° C | 50% | 1014.1 hPa | 0 mm | - | 119 W/m² | - |
| 1788017734 | 25.56° C | 49% | 1013.8 hPa | 0 mm | - | 390 W/m² | - |
| 1788017134 | 25.56° C | 50% | 1013.8 hPa | 0 mm | - | 314 W/m² | - |
| 1788016307 | 26.11° C | 48% | 1013.9 hPa | 0 mm | - | 390 W/m² | - |
| 1788015934 | 26.11° C | 45% | 1013.8 hPa | 0 mm | - | 487 W/m² | - |
| 1788015334 | 26.11° C | 46% | 1014.1 hPa | 0 mm | - | 336 W/m² | - |
| 1788014507 | 26.67° C | 43% | 1014 hPa | 0 mm | - | 574 W/m² | - |
| 1788014134 | 26.67° C | 42% | 1014 hPa | 0 mm | - | 584 W/m² | - |
| 1788013533 | 26.67° C | 45% | 1014 hPa | 0 mm | - | 563 W/m² | - |
| 1788012707 | 26.11° C | 45% | 1013.9 hPa | 0 mm | - | 574 W/m² | - |
| 1788012334 | 25.56° C | 44% | 1014.1 hPa | 0 mm | - | 617 W/m² | - |
| 1788011734 | 26.11° C | 43% | 1014.2 hPa | 0 mm | - | 639 W/m² | - |
| 1788010907 | 25.56° C | 46% | 1014.5 hPa | 0 mm | - | 671 W/m² | - |
| 1788010534 | 25° C | 45% | 1014.8 hPa | 0 mm | - | 693 W/m² | - |
| 1788009933 | 25.56° C | 46% | 1014.7 hPa | 0 mm | - | 617 W/m² | - |
| 1788009107 | 25.56° C | 46% | 1014.9 hPa | 0 mm | - | 898 W/m² | - |
* Rain latest hour (hover to see other rain measurements)
** Current wind speed in m/s (hover to see current wind gust speed)